sensor_id;sensor_type;location;lat;lon;timestamp;P1;durP1;ratioP1;P2;durP2;ratioP2
40541;SDS011;49288;52.194;5.676;2022-07-06T00:03:02;4.35;;;1.95;;
40541;SDS011;49288;52.194;5.676;2022-07-06T00:08:05;4.93;;;1.58;;
40541;SDS011;49288;52.194;5.676;2022-07-06T00:13:08;4.07;;;1.65;;
40541;SDS011;49288;52.194;5.676;2022-07-06T00:18:11;2.65;;;1.70;;
40541;SDS011;49288;52.194;5.676;2022-07-06T00:23:13;5.72;;;1.60;;
40541;SDS011;49288;52.194;5.676;2022-07-06T00:28:16;2.10;;;1.60;;
40541;SDS011;49288;52.194;5.676;2022-07-06T00:33:20;4.70;;;1.60;;
40541;SDS011;49288;52.194;5.676;2022-07-06T00:38:23;2.25;;;1.45;;
40541;SDS011;49288;52.194;5.676;2022-07-06T00:43:26;3.13;;;1.70;;
40541;SDS011;49288;52.194;5.676;2022-07-06T00:48:29;3.63;;;1.95;;
40541;SDS011;49288;52.194;5.676;2022-07-06T00:53:31;3.03;;;1.50;;
40541;SDS011;49288;52.194;5.676;2022-07-06T00:58:34;2.17;;;1.50;;
40541;SDS011;49288;52.194;5.676;2022-07-06T01:03:38;4.77;;;1.63;;
40541;SDS011;49288;52.194;5.676;2022-07-06T01:08:40;2.63;;;1.80;;
40541;SDS011;49288;52.194;5.676;2022-07-06T01:13:43;3.53;;;1.50;;
40541;SDS011;49288;52.194;5.676;2022-07-06T01:18:46;3.05;;;1.70;;
40541;SDS011;49288;52.194;5.676;2022-07-06T01:23:49;2.80;;;1.90;;
40541;SDS011;49288;52.194;5.676;2022-07-06T01:28:52;2.85;;;1.77;;
40541;SDS011;49288;52.194;5.676;2022-07-06T01:33:55;4.05;;;1.40;;
40541;SDS011;49288;52.194;5.676;2022-07-06T01:38:59;3.10;;;1.90;;
40541;SDS011;49288;52.194;5.676;2022-07-06T01:44:02;1.98;;;1.48;;
40541;SDS011;49288;52.194;5.676;2022-07-06T01:49:05;4.43;;;1.58;;
40541;SDS011;49288;52.194;5.676;2022-07-06T01:54:09;2.40;;;1.60;;
40541;SDS011;49288;52.194;5.676;2022-07-06T01:59:12;6.30;;;1.90;;
40541;SDS011;49288;52.194;5.676;2022-07-06T02:04:15;4.88;;;1.85;;
40541;SDS011;49288;52.194;5.676;2022-07-06T02:09:18;5.03;;;1.98;;
40541;SDS011;49288;52.194;5.676;2022-07-06T02:14:21;5.18;;;1.90;;
40541;SDS011;49288;52.194;5.676;2022-07-06T02:19:24;4.57;;;1.70;;
40541;SDS011;49288;52.194;5.676;2022-07-06T02:24:28;4.50;;;1.77;;
40541;SDS011;49288;52.194;5.676;2022-07-06T02:29:31;4.70;;;2.25;;
40541;SDS011;49288;52.194;5.676;2022-07-06T02:34:34;3.42;;;1.60;;
40541;SDS011;49288;52.194;5.676;2022-07-06T02:39:56;3.47;;;1.85;;
40541;SDS011;49288;52.194;5.676;2022-07-06T02:45:02;4.30;;;2.00;;
40541;SDS011;49288;52.194;5.676;2022-07-06T02:50:07;6.45;;;2.22;;
40541;SDS011;49288;52.194;5.676;2022-07-06T02:55:12;2.72;;;1.58;;
40541;SDS011;49288;52.194;5.676;2022-07-06T03:00:16;4.05;;;2.05;;
40541;SDS011;49288;52.194;5.676;2022-07-06T03:05:19;4.15;;;1.73;;
40541;SDS011;49288;52.194;5.676;2022-07-06T03:10:23;3.33;;;1.75;;
40541;SDS011;49288;52.194;5.676;2022-07-06T03:15:26;2.70;;;1.80;;
40541;SDS011;49288;52.194;5.676;2022-07-06T03:20:30;2.40;;;1.73;;
40541;SDS011;49288;52.194;5.676;2022-07-06T03:25:34;3.42;;;2.08;;
40541;SDS011;49288;52.194;5.676;2022-07-06T03:30:37;4.13;;;2.10;;
40541;SDS011;49288;52.194;5.676;2022-07-06T03:35:40;4.35;;;1.73;;
40541;SDS011;49288;52.194;5.676;2022-07-06T03:46:06;3.53;;;1.80;;
40541;SDS011;49288;52.194;5.676;2022-07-06T03:51:09;3.13;;;1.98;;
40541;SDS011;49288;52.194;5.676;2022-07-06T03:56:14;5.82;;;1.85;;
40541;SDS011;49288;52.194;5.676;2022-07-06T04:01:44;2.88;;;1.80;;
40541;SDS011;49288;52.194;5.676;2022-07-06T04:06:49;2.10;;;1.60;;
40541;SDS011;49288;52.194;5.676;2022-07-06T04:11:53;4.13;;;1.97;;
40541;SDS011;49288;52.194;5.676;2022-07-06T04:16:56;4.57;;;1.80;;
40541;SDS011;49288;52.194;5.676;2022-07-06T04:22:00;2.87;;;1.87;;
40541;SDS011;49288;52.194;5.676;2022-07-06T04:27:10;3.17;;;1.90;;
40541;SDS011;49288;52.194;5.676;2022-07-06T04:32:13;2.40;;;1.70;;
40541;SDS011;49288;52.194;5.676;2022-07-06T04:37:16;3.72;;;2.10;;
40541;SDS011;49288;52.194;5.676;2022-07-06T04:42:19;3.08;;;1.80;;
40541;SDS011;49288;52.194;5.676;2022-07-06T04:47:22;4.82;;;2.10;;
40541;SDS011;49288;52.194;5.676;2022-07-06T04:52:25;5.30;;;2.47;;
40541;SDS011;49288;52.194;5.676;2022-07-06T04:57:28;4.28;;;2.00;;
40541;SDS011;49288;52.194;5.676;2022-07-06T05:02:33;6.38;;;2.25;;
40541;SDS011;49288;52.194;5.676;2022-07-06T05:07:37;3.65;;;2.10;;
40541;SDS011;49288;52.194;5.676;2022-07-06T05:12:42;6.85;;;3.03;;
40541;SDS011;49288;52.194;5.676;2022-07-06T05:17:46;5.68;;;2.10;;
40541;SDS011;49288;52.194;5.676;2022-07-06T05:22:50;5.10;;;2.30;;
40541;SDS011;49288;52.194;5.676;2022-07-06T05:27:58;3.58;;;2.25;;
40541;SDS011;49288;52.194;5.676;2022-07-06T05:33:01;3.38;;;2.30;;
40541;SDS011;49288;52.194;5.676;2022-07-06T05:38:05;6.23;;;2.60;;
40541;SDS011;49288;52.194;5.676;2022-07-06T05:43:09;5.97;;;2.50;;
40541;SDS011;49288;52.194;5.676;2022-07-06T05:48:13;6.82;;;2.30;;
40541;SDS011;49288;52.194;5.676;2022-07-06T05:53:35;4.60;;;2.22;;
40541;SDS011;49288;52.194;5.676;2022-07-06T05:58:38;9.70;;;2.78;;
40541;SDS011;49288;52.194;5.676;2022-07-06T06:03:42;5.25;;;2.25;;
40541;SDS011;49288;52.194;5.676;2022-07-06T06:08:47;8.13;;;2.00;;
40541;SDS011;49288;52.194;5.676;2022-07-06T06:13:50;7.18;;;2.10;;
40541;SDS011;49288;52.194;5.676;2022-07-06T06:18:55;7.57;;;1.88;;
40541;SDS011;49288;52.194;5.676;2022-07-06T06:23:58;9.70;;;1.97;;
40541;SDS011;49288;52.194;5.676;2022-07-06T06:29:00;5.65;;;1.27;;
40541;SDS011;49288;52.194;5.676;2022-07-06T06:34:03;7.38;;;2.03;;
40541;SDS011;49288;52.194;5.676;2022-07-06T06:39:06;4.20;;;1.35;;
40541;SDS011;49288;52.194;5.676;2022-07-06T06:44:08;4.82;;;1.27;;
40541;SDS011;49288;52.194;5.676;2022-07-06T06:49:15;7.25;;;1.70;;
40541;SDS011;49288;52.194;5.676;2022-07-06T06:54:37;4.05;;;1.30;;
40541;SDS011;49288;52.194;5.676;2022-07-06T06:59:40;5.20;;;1.33;;
40541;SDS011;49288;52.194;5.676;2022-07-06T07:04:43;4.50;;;1.33;;
40541;SDS011;49288;52.194;5.676;2022-07-06T07:09:47;4.28;;;1.10;;
40541;SDS011;49288;52.194;5.676;2022-07-06T07:14:50;3.20;;;0.80;;
40541;SDS011;49288;52.194;5.676;2022-07-06T07:19:52;3.45;;;1.20;;
40541;SDS011;49288;52.194;5.676;2022-07-06T07:24:55;3.58;;;1.45;;
40541;SDS011;49288;52.194;5.676;2022-07-06T07:29:59;2.80;;;0.90;;
40541;SDS011;49288;52.194;5.676;2022-07-06T07:35:02;4.38;;;1.15;;
40541;SDS011;49288;52.194;5.676;2022-07-06T07:40:05;2.60;;;0.85;;
40541;SDS011;49288;52.194;5.676;2022-07-06T07:45:09;3.87;;;1.07;;
40541;SDS011;49288;52.194;5.676;2022-07-06T07:50:12;3.63;;;1.60;;
40541;SDS011;49288;52.194;5.676;2022-07-06T07:55:14;10.30;;;1.30;;
40541;SDS011;49288;52.194;5.676;2022-07-06T08:00:37;1.52;;;0.60;;
40541;SDS011;49288;52.194;5.676;2022-07-06T08:05:39;3.33;;;0.98;;
40541;SDS011;49288;52.194;5.676;2022-07-06T08:10:45;4.13;;;0.90;;
40541;SDS011;49288;52.194;5.676;2022-07-06T08:16:08;2.72;;;0.90;;
40541;SDS011;49288;52.194;5.676;2022-07-06T08:21:30;1.90;;;0.85;;
40541;SDS011;49288;52.194;5.676;2022-07-06T08:26:36;1.98;;;0.63;;
40541;SDS011;49288;52.194;5.676;2022-07-06T08:31:38;2.70;;;0.70;;
40541;SDS011;49288;52.194;5.676;2022-07-06T08:36:59;2.35;;;0.90;;
40541;SDS011;49288;52.194;5.676;2022-07-06T08:42:04;4.47;;;1.02;;
40541;SDS011;49288;52.194;5.676;2022-07-06T08:47:09;1.38;;;0.50;;
40541;SDS011;49288;52.194;5.676;2022-07-06T08:52:17;3.03;;;0.73;;
40541;SDS011;49288;52.194;5.676;2022-07-06T08:57:19;2.20;;;0.77;;
40541;SDS011;49288;52.194;5.676;2022-07-06T09:02:23;4.15;;;0.90;;
40541;SDS011;49288;52.194;5.676;2022-07-06T09:07:30;3.40;;;1.05;;
40541;SDS011;49288;52.194;5.676;2022-07-06T09:12:52;6.43;;;0.90;;
40541;SDS011;49288;52.194;5.676;2022-07-06T09:17:56;4.03;;;1.10;;
40541;SDS011;49288;52.194;5.676;2022-07-06T09:23:02;3.15;;;1.05;;
40541;SDS011;49288;52.194;5.676;2022-07-06T09:28:15;0.95;;;0.50;;
40541;SDS011;49288;52.194;5.676;2022-07-06T09:33:18;2.10;;;0.90;;
40541;SDS011;49288;52.194;5.676;2022-07-06T09:38:20;3.27;;;0.90;;
40541;SDS011;49288;52.194;5.676;2022-07-06T09:43:24;3.13;;;1.00;;
40541;SDS011;49288;52.194;5.676;2022-07-06T09:48:28;4.38;;;1.15;;
40541;SDS011;49288;52.194;5.676;2022-07-06T09:53:34;4.72;;;0.95;;
40541;SDS011;49288;52.194;5.676;2022-07-06T09:58:37;3.50;;;0.98;;
40541;SDS011;49288;52.194;5.676;2022-07-06T10:04:01;1.40;;;0.70;;
40541;SDS011;49288;52.194;5.676;2022-07-06T10:09:05;1.77;;;0.57;;
40541;SDS011;49288;52.194;5.676;2022-07-06T10:14:15;2.83;;;0.60;;
40541;SDS011;49288;52.194;5.676;2022-07-06T10:19:20;1.55;;;0.63;;
40541;SDS011;49288;52.194;5.676;2022-07-06T10:24:23;5.97;;;0.90;;
40541;SDS011;49288;52.194;5.676;2022-07-06T10:29:27;1.38;;;0.45;;
40541;SDS011;49288;52.194;5.676;2022-07-06T10:34:30;4.20;;;0.77;;
40541;SDS011;49288;52.194;5.676;2022-07-06T10:39:34;2.60;;;0.93;;
40541;SDS011;49288;52.194;5.676;2022-07-06T10:44:56;1.25;;;0.60;;
40541;SDS011;49288;52.194;5.676;2022-07-06T10:50:00;2.42;;;0.90;;
40541;SDS011;49288;52.194;5.676;2022-07-06T10:55:03;3.17;;;0.82;;
40541;SDS011;49288;52.194;5.676;2022-07-06T11:00:07;3.03;;;0.82;;
40541;SDS011;49288;52.194;5.676;2022-07-06T11:05:39;3.00;;;0.63;;
40541;SDS011;49288;52.194;5.676;2022-07-06T11:11:17;3.80;;;1.10;;
40541;SDS011;49288;52.194;5.676;2022-07-06T11:16:24;1.38;;;0.70;;
40541;SDS011;49288;52.194;5.676;2022-07-06T11:21:33;4.20;;;0.60;;
40541;SDS011;49288;52.194;5.676;2022-07-06T11:26:55;2.78;;;0.90;;
40541;SDS011;49288;52.194;5.676;2022-07-06T11:31:59;1.45;;;0.77;;
40541;SDS011;49288;52.194;5.676;2022-07-06T11:37:07;4.50;;;1.10;;
40541;SDS011;49288;52.194;5.676;2022-07-06T11:42:17;4.95;;;0.90;;
40541;SDS011;49288;52.194;5.676;2022-07-06T11:47:20;4.78;;;0.90;;
40541;SDS011;49288;52.194;5.676;2022-07-06T11:52:25;2.75;;;0.90;;
40541;SDS011;49288;52.194;5.676;2022-07-06T12:02:31;1.95;;;1.00;;
40541;SDS011;49288;52.194;5.676;2022-07-06T12:07:35;2.55;;;0.95;;
40541;SDS011;49288;52.194;5.676;2022-07-06T12:12:38;1.90;;;0.98;;
40541;SDS011;49288;52.194;5.676;2022-07-06T12:17:49;3.20;;;1.15;;
40541;SDS011;49288;52.194;5.676;2022-07-06T12:23:05;1.92;;;0.80;;
40541;SDS011;49288;52.194;5.676;2022-07-06T12:28:20;5.22;;;1.00;;
40541;SDS011;49288;52.194;5.676;2022-07-06T12:33:26;6.78;;;1.00;;
40541;SDS011;49288;52.194;5.676;2022-07-06T12:38:49;2.65;;;0.95;;
40541;SDS011;49288;52.194;5.676;2022-07-06T12:43:59;2.35;;;0.80;;
40541;SDS011;49288;52.194;5.676;2022-07-06T12:49:20;1.90;;;0.80;;
40541;SDS011;49288;52.194;5.676;2022-07-06T12:54:28;2.00;;;0.73;;
40541;SDS011;49288;52.194;5.676;2022-07-06T12:59:37;3.47;;;0.90;;
40541;SDS011;49288;52.194;5.676;2022-07-06T13:04:41;3.83;;;1.33;;
40541;SDS011;49288;52.194;5.676;2022-07-06T13:09:44;3.75;;;0.95;;
40541;SDS011;49288;52.194;5.676;2022-07-06T13:14:48;3.88;;;1.02;;
40541;SDS011;49288;52.194;5.676;2022-07-06T13:19:55;2.55;;;1.08;;
40541;SDS011;49288;52.194;5.676;2022-07-06T13:24:58;1.98;;;0.93;;
40541;SDS011;49288;52.194;5.676;2022-07-06T13:35:03;2.45;;;1.10;;
40541;SDS011;49288;52.194;5.676;2022-07-06T13:40:06;2.38;;;1.00;;
40541;SDS011;49288;52.194;5.676;2022-07-06T13:45:14;3.80;;;1.13;;
40541;SDS011;49288;52.194;5.676;2022-07-06T13:50:17;2.08;;;0.90;;
40541;SDS011;49288;52.194;5.676;2022-07-06T13:55:20;3.40;;;0.88;;
40541;SDS011;49288;52.194;5.676;2022-07-06T14:00:23;2.63;;;1.08;;
40541;SDS011;49288;52.194;5.676;2022-07-06T14:05:27;1.63;;;0.80;;
40541;SDS011;49288;52.194;5.676;2022-07-06T14:10:30;5.15;;;1.30;;
40541;SDS011;49288;52.194;5.676;2022-07-06T14:15:33;3.95;;;1.33;;
40541;SDS011;49288;52.194;5.676;2022-07-06T14:20:36;1.73;;;1.05;;
40541;SDS011;49288;52.194;5.676;2022-07-06T14:30:42;3.95;;;1.33;;
40541;SDS011;49288;52.194;5.676;2022-07-06T14:35:47;2.42;;;1.13;;
40541;SDS011;49288;52.194;5.676;2022-07-06T14:40:51;5.25;;;1.02;;
40541;SDS011;49288;52.194;5.676;2022-07-06T14:50:56;3.38;;;0.93;;
40541;SDS011;49288;52.194;5.676;2022-07-06T14:56:00;4.60;;;1.13;;
40541;SDS011;49288;52.194;5.676;2022-07-06T15:01:02;5.75;;;1.05;;
40541;SDS011;49288;52.194;5.676;2022-07-06T15:11:08;2.67;;;1.17;;
40541;SDS011;49288;52.194;5.676;2022-07-06T15:16:10;3.95;;;1.55;;
40541;SDS011;49288;52.194;5.676;2022-07-06T15:21:16;3.22;;;1.30;;
40541;SDS011;49288;52.194;5.676;2022-07-06T15:26:18;2.45;;;1.25;;
40541;SDS011;49288;52.194;5.676;2022-07-06T15:31:21;3.08;;;1.50;;
40541;SDS011;49288;52.194;5.676;2022-07-06T15:36:24;3.58;;;1.33;;
40541;SDS011;49288;52.194;5.676;2022-07-06T15:41:27;6.20;;;1.70;;
40541;SDS011;49288;52.194;5.676;2022-07-06T15:46:29;6.00;;;1.80;;
40541;SDS011;49288;52.194;5.676;2022-07-06T15:51:50;4.25;;;1.67;;
40541;SDS011;49288;52.194;5.676;2022-07-06T15:56:53;9.73;;;1.80;;
40541;SDS011;49288;52.194;5.676;2022-07-06T16:01:56;4.40;;;1.57;;
40541;SDS011;49288;52.194;5.676;2022-07-06T16:06:59;5.47;;;1.90;;
40541;SDS011;49288;52.194;5.676;2022-07-06T16:12:21;4.75;;;1.92;;
40541;SDS011;49288;52.194;5.676;2022-07-06T16:17:24;7.50;;;2.20;;
40541;SDS011;49288;52.194;5.676;2022-07-06T16:22:27;10.63;;;2.33;;
40541;SDS011;49288;52.194;5.676;2022-07-06T16:27:32;6.15;;;2.30;;
40541;SDS011;49288;52.194;5.676;2022-07-06T16:32:36;10.45;;;2.50;;
40541;SDS011;49288;52.194;5.676;2022-07-06T16:37:38;12.30;;;3.10;;
40541;SDS011;49288;52.194;5.676;2022-07-06T16:42:41;8.00;;;2.70;;
40541;SDS011;49288;52.194;5.676;2022-07-06T16:47:44;9.83;;;2.80;;
40541;SDS011;49288;52.194;5.676;2022-07-06T16:52:53;5.88;;;2.67;;
40541;SDS011;49288;52.194;5.676;2022-07-06T16:57:57;5.85;;;2.90;;
40541;SDS011;49288;52.194;5.676;2022-07-06T17:03:00;13.65;;;3.20;;
40541;SDS011;49288;52.194;5.676;2022-07-06T17:08:04;10.10;;;3.13;;
40541;SDS011;49288;52.194;5.676;2022-07-06T17:13:07;33.28;;;3.42;;
40541;SDS011;49288;52.194;5.676;2022-07-06T17:18:10;6.75;;;3.15;;
40541;SDS011;49288;52.194;5.676;2022-07-06T17:23:14;4.85;;;2.60;;
40541;SDS011;49288;52.194;5.676;2022-07-06T17:28:17;5.82;;;2.53;;
40541;SDS011;49288;52.194;5.676;2022-07-06T17:33:20;7.50;;;3.35;;
40541;SDS011;49288;52.194;5.676;2022-07-06T17:38:23;12.63;;;3.63;;
40541;SDS011;49288;52.194;5.676;2022-07-06T17:43:26;7.70;;;3.38;;
40541;SDS011;49288;52.194;5.676;2022-07-06T17:48:30;4.75;;;2.65;;
40541;SDS011;49288;52.194;5.676;2022-07-06T17:53:33;6.70;;;3.28;;
40541;SDS011;49288;52.194;5.676;2022-07-06T17:58:36;7.85;;;2.70;;
40541;SDS011;49288;52.194;5.676;2022-07-06T18:03:38;5.82;;;2.60;;
40541;SDS011;49288;52.194;5.676;2022-07-06T18:08:41;5.13;;;2.67;;
40541;SDS011;49288;52.194;5.676;2022-07-06T18:13:47;4.93;;;2.50;;
40541;SDS011;49288;52.194;5.676;2022-07-06T18:18:50;8.48;;;2.72;;
40541;SDS011;49288;52.194;5.676;2022-07-06T18:23:53;6.30;;;2.38;;
40541;SDS011;49288;52.194;5.676;2022-07-06T18:28:56;3.78;;;2.25;;
40541;SDS011;49288;52.194;5.676;2022-07-06T18:34:00;4.93;;;2.30;;
40541;SDS011;49288;52.194;5.676;2022-07-06T18:39:03;5.03;;;2.10;;
40541;SDS011;49288;52.194;5.676;2022-07-06T18:44:06;7.43;;;2.00;;
40541;SDS011;49288;52.194;5.676;2022-07-06T18:49:10;6.00;;;2.05;;
40541;SDS011;49288;52.194;5.676;2022-07-06T18:54:13;4.47;;;1.90;;
40541;SDS011;49288;52.194;5.676;2022-07-06T18:59:16;3.10;;;1.97;;
40541;SDS011;49288;52.194;5.676;2022-07-06T19:04:18;4.40;;;2.65;;
40541;SDS011;49288;52.194;5.676;2022-07-06T19:09:21;6.93;;;2.63;;
40541;SDS011;49288;52.194;5.676;2022-07-06T19:14:42;4.05;;;2.20;;
40541;SDS011;49288;52.194;5.676;2022-07-06T19:19:45;5.30;;;2.33;;
40541;SDS011;49288;52.194;5.676;2022-07-06T19:24:48;4.50;;;2.53;;
40541;SDS011;49288;52.194;5.676;2022-07-06T19:29:51;7.03;;;2.72;;
40541;SDS011;49288;52.194;5.676;2022-07-06T19:34:56;5.32;;;2.60;;
40541;SDS011;49288;52.194;5.676;2022-07-06T19:39:59;4.90;;;2.60;;
40541;SDS011;49288;52.194;5.676;2022-07-06T19:45:01;3.65;;;2.17;;
40541;SDS011;49288;52.194;5.676;2022-07-06T19:50:04;5.30;;;2.55;;
40541;SDS011;49288;52.194;5.676;2022-07-06T19:55:07;6.30;;;2.92;;
40541;SDS011;49288;52.194;5.676;2022-07-06T20:00:10;4.50;;;2.77;;
40541;SDS011;49288;52.194;5.676;2022-07-06T20:05:14;6.05;;;3.53;;
40541;SDS011;49288;52.194;5.676;2022-07-06T20:10:16;5.20;;;3.20;;
40541;SDS011;49288;52.194;5.676;2022-07-06T20:15:19;7.22;;;3.45;;
40541;SDS011;49288;52.194;5.676;2022-07-06T20:20:22;5.25;;;2.75;;
40541;SDS011;49288;52.194;5.676;2022-07-06T20:25:44;5.40;;;2.60;;
40541;SDS011;49288;52.194;5.676;2022-07-06T20:30:46;6.22;;;2.55;;
40541;SDS011;49288;52.194;5.676;2022-07-06T20:35:49;5.13;;;2.97;;
40541;SDS011;49288;52.194;5.676;2022-07-06T20:40:52;5.63;;;3.00;;
40541;SDS011;49288;52.194;5.676;2022-07-06T20:45:54;5.22;;;2.70;;
40541;SDS011;49288;52.194;5.676;2022-07-06T20:50:57;6.38;;;3.00;;
40541;SDS011;49288;52.194;5.676;2022-07-06T20:56:00;6.50;;;3.00;;
40541;SDS011;49288;52.194;5.676;2022-07-06T21:01:05;3.70;;;2.60;;
40541;SDS011;49288;52.194;5.676;2022-07-06T21:06:08;5.53;;;3.53;;
40541;SDS011;49288;52.194;5.676;2022-07-06T21:11:12;5.70;;;3.60;;
40541;SDS011;49288;52.194;5.676;2022-07-06T21:16:15;7.85;;;3.75;;
40541;SDS011;49288;52.194;5.676;2022-07-06T21:21:18;5.78;;;3.55;;
40541;SDS011;49288;52.194;5.676;2022-07-06T21:26:20;7.57;;;3.17;;
40541;SDS011;49288;52.194;5.676;2022-07-06T21:31:23;5.18;;;3.13;;
40541;SDS011;49288;52.194;5.676;2022-07-06T21:41:30;5.95;;;3.80;;
40541;SDS011;49288;52.194;5.676;2022-07-06T21:46:34;7.78;;;3.35;;
40541;SDS011;49288;52.194;5.676;2022-07-06T21:51:41;5.22;;;3.50;;
40541;SDS011;49288;52.194;5.676;2022-07-06T21:56:43;5.80;;;3.67;;
40541;SDS011;49288;52.194;5.676;2022-07-06T22:01:46;6.53;;;3.80;;
40541;SDS011;49288;52.194;5.676;2022-07-06T22:06:49;7.15;;;4.10;;
40541;SDS011;49288;52.194;5.676;2022-07-06T22:11:51;10.27;;;4.00;;
40541;SDS011;49288;52.194;5.676;2022-07-06T22:16:54;6.82;;;3.53;;
40541;SDS011;49288;52.194;5.676;2022-07-06T22:21:58;6.93;;;3.70;;
40541;SDS011;49288;52.194;5.676;2022-07-06T22:27:01;6.90;;;4.10;;
40541;SDS011;49288;52.194;5.676;2022-07-06T22:32:05;6.43;;;3.70;;
40541;SDS011;49288;52.194;5.676;2022-07-06T22:37:08;7.97;;;3.75;;
40541;SDS011;49288;52.194;5.676;2022-07-06T22:42:15;6.32;;;4.47;;
40541;SDS011;49288;52.194;5.676;2022-07-06T22:47:18;9.52;;;5.22;;
40541;SDS011;49288;52.194;5.676;2022-07-06T22:52:21;8.00;;;4.75;;
40541;SDS011;49288;52.194;5.676;2022-07-06T22:57:24;6.63;;;4.22;;
40541;SDS011;49288;52.194;5.676;2022-07-06T23:02:26;7.28;;;4.88;;
40541;SDS011;49288;52.194;5.676;2022-07-06T23:07:29;10.65;;;5.25;;
40541;SDS011;49288;52.194;5.676;2022-07-06T23:12:32;12.63;;;5.07;;
40541;SDS011;49288;52.194;5.676;2022-07-06T23:17:35;9.05;;;5.70;;
40541;SDS011;49288;52.194;5.676;2022-07-06T23:22:38;11.75;;;5.78;;
40541;SDS011;49288;52.194;5.676;2022-07-06T23:27:40;9.73;;;5.47;;
40541;SDS011;49288;52.194;5.676;2022-07-06T23:32:43;10.63;;;6.15;;
40541;SDS011;49288;52.194;5.676;2022-07-06T23:37:46;12.20;;;6.20;;
40541;SDS011;49288;52.194;5.676;2022-07-06T23:42:50;14.70;;;6.35;;
40541;SDS011;49288;52.194;5.676;2022-07-06T23:47:53;13.38;;;7.22;;
40541;SDS011;49288;52.194;5.676;2022-07-06T23:53:00;8.60;;;5.35;;
40541;SDS011;49288;52.194;5.676;2022-07-06T23:58:03;9.95;;;6.60;;
